createdAt,value
2023-04-06T00:00:55.386Z,503.00
2023-04-06T00:01:55.382Z,503.00
2023-04-06T00:02:55.454Z,502.00
2023-04-06T00:03:55.450Z,507.00
2023-04-06T00:04:55.422Z,502.00
2023-04-06T00:05:55.410Z,508.00
2023-04-06T00:06:55.453Z,507.00
2023-04-06T00:07:55.423Z,509.00
2023-04-06T00:08:55.444Z,505.00
2023-04-06T00:09:55.450Z,504.00
2023-04-06T00:10:55.463Z,506.00
2023-04-06T00:11:55.503Z,510.00
2023-04-06T00:12:55.484Z,510.00
2023-04-06T00:13:55.495Z,507.00
2023-04-06T00:14:55.546Z,507.00
2023-04-06T00:15:55.538Z,510.00
2023-04-06T00:16:55.573Z,508.00
2023-04-06T00:17:55.592Z,510.00
2023-04-06T00:18:55.581Z,511.00
2023-04-06T00:19:55.596Z,506.00
2023-04-06T00:20:55.599Z,507.00
2023-04-06T00:21:55.658Z,508.00
2023-04-06T00:22:55.629Z,509.00
2023-04-06T00:23:55.633Z,508.00
2023-04-06T00:24:55.712Z,507.00
2023-04-06T00:25:55.727Z,502.00
2023-04-06T00:26:55.787Z,503.00
2023-04-06T00:27:55.824Z,509.00
2023-04-06T00:28:55.899Z,506.00
2023-04-06T00:29:55.953Z,505.00
2023-04-06T00:30:56.046Z,508.00
2023-04-06T00:31:56.106Z,506.00
2023-04-06T00:32:56.227Z,507.00
2023-04-06T00:33:56.193Z,509.00
2023-04-06T00:34:56.254Z,506.00
2023-04-06T00:35:56.635Z,509.00
2023-04-06T00:36:56.343Z,507.00
2023-04-06T00:37:56.416Z,514.00
2023-04-06T00:38:56.486Z,513.00
2023-04-06T00:39:56.547Z,510.00
2023-04-06T00:40:56.623Z,504.00
2023-04-06T00:41:56.662Z,508.00
2023-04-06T00:42:56.715Z,502.00
2023-04-06T00:43:56.723Z,503.00
2023-04-06T00:44:56.779Z,504.00
2023-04-06T00:45:56.796Z,505.00
2023-04-06T00:46:56.784Z,501.00
2023-04-06T00:47:56.857Z,504.00
2023-04-06T00:48:56.823Z,510.00
2023-04-06T00:49:56.824Z,512.00
2023-04-06T00:50:56.853Z,509.00
2023-04-06T00:51:56.877Z,510.00
2023-04-06T00:52:56.870Z,506.00
2023-04-06T00:53:56.893Z,503.00
2023-04-06T00:54:56.896Z,504.00
2023-04-06T00:55:56.935Z,508.00
2023-04-06T00:56:56.952Z,511.00
2023-04-06T00:57:57.039Z,512.00
2023-04-06T00:58:57.111Z,512.00
2023-04-06T00:59:57.033Z,508.00
2023-04-06T01:00:57.039Z,510.00
2023-04-06T01:01:57.062Z,510.00
2023-04-06T01:02:57.091Z,507.00
2023-04-06T01:03:57.074Z,506.00
2023-04-06T01:04:57.125Z,507.00
2023-04-06T01:05:57.152Z,508.00
2023-04-06T01:06:57.140Z,510.00
2023-04-06T01:07:57.141Z,507.00
2023-04-06T01:08:57.190Z,505.00
2023-04-06T01:09:57.164Z,506.00
2023-04-06T01:10:57.198Z,502.00
2023-04-06T01:11:57.195Z,503.00
2023-04-06T01:12:57.213Z,507.00
2023-04-06T01:13:57.233Z,505.00
2023-04-06T01:14:57.253Z,504.00
2023-04-06T01:15:57.298Z,504.00
2023-04-06T01:16:57.335Z,501.00
2023-04-06T01:17:58.065Z,503.00
2023-04-06T01:18:57.494Z,501.00
2023-04-06T01:19:57.514Z,504.00
2023-04-06T01:20:57.533Z,504.00
2023-04-06T01:21:57.591Z,507.00
2023-04-06T01:22:57.579Z,505.00
2023-04-06T01:23:57.589Z,500.00
2023-04-06T01:24:57.600Z,503.00
2023-04-06T01:25:57.628Z,504.00
2023-04-06T01:26:57.684Z,502.00
2023-04-06T01:27:57.751Z,505.00
2023-04-06T01:28:57.796Z,505.00
2023-04-06T01:29:57.874Z,507.00
2023-04-06T01:30:57.925Z,514.00
2023-04-06T01:31:57.994Z,512.00
2023-04-06T01:32:58.094Z,517.00
2023-04-06T01:33:58.120Z,515.00
2023-04-06T01:34:58.184Z,517.00
2023-04-06T01:35:58.303Z,513.00
2023-04-06T01:36:58.301Z,509.00
2023-04-06T01:37:58.362Z,506.00
2023-04-06T01:38:58.419Z,502.00
2023-04-06T01:39:58.498Z,509.00
2023-04-06T01:40:58.565Z,504.00
2023-04-06T01:41:58.630Z,506.00
2023-04-06T01:42:58.708Z,504.00
2023-04-06T01:43:58.745Z,501.00
2023-04-06T01:44:58.792Z,503.00
2023-04-06T01:45:58.857Z,504.00
2023-04-06T01:46:59.015Z,504.00
2023-04-06T01:47:59.059Z,505.00
2023-04-06T01:48:59.060Z,504.00
2023-04-06T01:49:59.113Z,504.00
2023-04-06T01:50:59.174Z,506.00
2023-04-06T01:51:59.207Z,504.00
2023-04-06T01:52:59.257Z,506.00
2023-04-06T01:53:59.363Z,503.00
2023-04-06T01:54:59.341Z,501.00
2023-04-06T01:55:59.339Z,501.00
2023-04-06T01:56:59.360Z,500.00
2023-04-06T01:57:59.445Z,505.00
2023-04-06T01:58:59.485Z,505.00
2023-04-06T01:59:59.438Z,506.00
2023-04-06T02:00:59.483Z,509.00
2023-04-06T02:01:59.511Z,505.00
2023-04-06T02:02:59.497Z,505.00
2023-04-06T02:03:59.506Z,507.00
2023-04-06T02:04:59.511Z,506.00
2023-04-06T02:05:59.525Z,508.00
2023-04-06T02:06:59.566Z,506.00
2023-04-06T02:07:59.599Z,504.00
2023-04-06T02:08:59.678Z,500.00
2023-04-06T02:09:59.667Z,500.00
2023-04-06T02:10:59.680Z,504.00
2023-04-06T02:11:59.716Z,506.00
2023-04-06T02:12:59.761Z,509.00
2023-04-06T02:13:59.840Z,505.00
2023-04-06T02:14:59.910Z,507.00
2023-04-06T02:15:59.992Z,502.00
2023-04-06T02:17:00.035Z,501.00
2023-04-06T02:18:00.127Z,504.00
2023-04-06T02:19:00.135Z,508.00
2023-04-06T02:20:00.192Z,503.00
2023-04-06T02:21:00.259Z,506.00
2023-04-06T02:22:00.354Z,504.00
2023-04-06T02:23:00.365Z,504.00
2023-04-06T02:24:00.462Z,509.00
2023-04-06T02:25:00.524Z,511.00
2023-04-06T02:26:00.564Z,509.00
2023-04-06T02:27:00.654Z,508.00
2023-04-06T02:28:00.693Z,508.00
2023-04-06T02:29:00.740Z,505.00
2023-04-06T02:30:00.780Z,510.00
2023-04-06T02:31:00.785Z,507.00
2023-04-06T02:32:00.914Z,509.00
2023-04-06T02:33:00.860Z,508.00
2023-04-06T02:34:00.869Z,508.00
2023-04-06T02:35:00.874Z,509.00
2023-04-06T02:36:00.934Z,507.00
2023-04-06T02:37:00.954Z,510.00
2023-04-06T02:38:00.965Z,506.00
2023-04-06T02:39:00.965Z,502.00
2023-04-06T02:40:00.967Z,506.00
2023-04-06T02:41:01.003Z,508.00
2023-04-06T02:42:01.042Z,509.00
2023-04-06T02:43:01.056Z,504.00
2023-04-06T02:44:01.080Z,507.00
2023-04-06T02:45:01.107Z,509.00
2023-04-06T02:46:01.173Z,507.00
2023-04-06T02:47:01.202Z,504.00
2023-04-06T02:48:01.243Z,508.00
2023-04-06T02:49:01.212Z,507.00
2023-04-06T02:50:01.277Z,502.00
2023-04-06T02:51:01.342Z,504.00
2023-04-06T02:52:01.430Z,507.00
2023-04-06T02:53:01.434Z,509.00
2023-04-06T02:54:01.526Z,507.00
2023-04-06T02:55:01.531Z,512.00
2023-04-06T02:56:01.578Z,507.00
2023-04-06T02:57:01.599Z,511.00
2023-04-06T02:58:01.605Z,510.00
2023-04-06T02:59:01.734Z,512.00
2023-04-06T03:00:01.685Z,510.00
2023-04-06T03:01:01.700Z,513.00
2023-04-06T03:02:01.760Z,510.00
2023-04-06T03:03:01.781Z,510.00
2023-04-06T03:04:01.789Z,510.00
2023-04-06T03:05:01.785Z,510.00
2023-04-06T03:06:01.846Z,509.00
2023-04-06T03:07:01.867Z,509.00
2023-04-06T03:08:01.860Z,507.00
2023-04-06T03:09:01.899Z,509.00
2023-04-06T03:10:01.901Z,514.00
2023-04-06T03:11:01.926Z,513.00
2023-04-06T03:12:01.936Z,512.00
2023-04-06T03:13:01.956Z,514.00
2023-04-06T03:14:01.985Z,514.00
2023-04-06T03:15:02.007Z,512.00
2023-04-06T03:16:02.124Z,513.00
2023-04-06T03:17:02.039Z,514.00
2023-04-06T03:18:02.109Z,514.00
2023-04-06T03:19:02.093Z,517.00
2023-04-06T03:20:02.119Z,518.00
2023-04-06T03:21:02.122Z,520.00
2023-04-06T03:22:02.156Z,517.00
2023-04-06T03:23:02.172Z,520.00
2023-04-06T03:24:02.182Z,518.00
2023-04-06T03:25:03.759Z,517.00
2023-04-06T03:26:02.222Z,515.00
2023-04-06T03:27:02.256Z,516.00
2023-04-06T03:28:02.266Z,513.00
2023-04-06T03:29:02.289Z,515.00
2023-04-06T03:30:02.324Z,516.00
2023-04-06T03:31:02.334Z,513.00
2023-04-06T03:32:02.365Z,513.00
2023-04-06T03:33:02.430Z,515.00
2023-04-06T03:34:02.401Z,515.00
2023-04-06T03:35:02.393Z,517.00
2023-04-06T03:36:03.084Z,514.00
2023-04-06T03:37:09.935Z,517.00
2023-04-06T03:38:03.461Z,517.00
2023-04-06T03:39:02.423Z,518.00
2023-04-06T03:40:02.400Z,518.00
2023-04-06T03:41:02.428Z,519.00
2023-04-06T03:42:02.441Z,519.00
2023-04-06T03:43:02.417Z,519.00
2023-04-06T03:44:02.399Z,517.00
2023-04-06T03:45:02.402Z,520.00
2023-04-06T03:46:02.425Z,524.00
2023-04-06T03:47:02.384Z,524.00
2023-04-06T03:48:02.387Z,522.00
2023-04-06T03:49:02.364Z,521.00
2023-04-06T03:50:02.371Z,521.00
2023-04-06T03:51:02.444Z,517.00
2023-04-06T03:52:02.485Z,517.00
2023-04-06T03:53:02.526Z,517.00
2023-04-06T03:54:02.578Z,517.00
2023-04-06T03:55:02.637Z,520.00
2023-04-06T03:56:04.761Z,520.00
2023-04-06T03:57:02.644Z,519.00
2023-04-06T03:58:02.694Z,517.00
2023-04-06T03:59:02.733Z,515.00
2023-04-06T04:00:02.745Z,513.00
2023-04-06T04:01:02.745Z,515.00
2023-04-06T04:02:02.814Z,514.00
2023-04-06T04:03:02.840Z,515.00
2023-04-06T04:04:02.851Z,515.00
2023-04-06T04:05:02.884Z,516.00
2023-04-06T04:06:02.835Z,511.00
2023-04-06T04:07:02.874Z,514.00
2023-04-06T04:08:02.883Z,513.00
2023-04-06T04:09:02.916Z,512.00
2023-04-06T04:10:02.965Z,513.00
2023-04-06T04:11:02.953Z,512.00
2023-04-06T04:12:03.000Z,512.00
2023-04-06T04:13:03.023Z,509.00
2023-04-06T04:14:03.033Z,511.00
2023-04-06T04:15:03.048Z,513.00
2023-04-06T04:16:03.150Z,513.00
2023-04-06T04:17:03.107Z,516.00
2023-04-06T04:18:03.332Z,513.00
2023-04-06T04:19:03.168Z,515.00
2023-04-06T04:20:03.174Z,513.00
2023-04-06T04:21:03.220Z,512.00
2023-04-06T04:22:03.271Z,510.00
2023-04-06T04:23:03.321Z,509.00
2023-04-06T04:24:03.393Z,510.00
2023-04-06T04:25:03.429Z,512.00
2023-04-06T04:26:03.501Z,510.00
2023-04-06T04:27:03.563Z,510.00
2023-04-06T04:28:03.562Z,512.00
2023-04-06T04:29:03.581Z,508.00
2023-04-06T04:30:03.632Z,510.00
2023-04-06T04:31:03.670Z,508.00
2023-04-06T04:32:03.727Z,512.00
2023-04-06T04:33:03.780Z,513.00
2023-04-06T04:34:03.757Z,510.00
2023-04-06T04:35:03.848Z,512.00
2023-04-06T04:36:03.944Z,513.00
2023-04-06T04:37:03.935Z,512.00
2023-04-06T04:38:04.003Z,515.00
2023-04-06T04:39:04.033Z,513.00
2023-04-06T04:40:04.096Z,512.00
2023-04-06T04:41:04.135Z,513.00
2023-04-06T04:42:04.171Z,509.00
2023-04-06T04:43:04.190Z,512.00
2023-04-06T04:44:04.228Z,511.00
2023-04-06T04:45:04.256Z,515.00
2023-04-06T04:46:04.317Z,511.00
2023-04-06T04:47:04.294Z,510.00
2023-04-06T04:48:04.397Z,511.00
2023-04-06T04:49:04.382Z,513.00
2023-04-06T04:50:04.416Z,509.00
2023-04-06T04:51:04.416Z,508.00
2023-04-06T04:52:04.460Z,513.00
2023-04-06T04:53:04.468Z,511.00
2023-04-06T04:54:04.531Z,514.00
2023-04-06T04:55:04.541Z,515.00
2023-04-06T04:56:04.577Z,512.00
2023-04-06T04:57:04.577Z,512.00
2023-04-06T04:58:04.606Z,510.00
2023-04-06T04:59:04.650Z,510.00
2023-04-06T05:00:04.670Z,507.00
2023-04-06T05:01:11.761Z,511.00
2023-04-06T05:02:04.856Z,512.00
2023-04-06T05:03:04.911Z,512.00
2023-04-06T05:04:04.709Z,512.00
2023-04-06T05:05:04.716Z,512.00
2023-04-06T05:06:04.679Z,512.00
2023-04-06T05:07:04.703Z,512.00
2023-04-06T05:08:04.688Z,512.00
2023-04-06T05:09:04.687Z,512.00
2023-04-06T05:10:04.658Z,508.00
2023-04-06T05:11:04.698Z,510.00
2023-04-06T05:12:04.661Z,509.00
2023-04-06T05:13:04.653Z,507.00
2023-04-06T05:14:04.654Z,508.00
2023-04-06T05:15:04.668Z,506.00
2023-04-06T05:16:04.698Z,511.00
2023-04-06T05:17:04.651Z,506.00
2023-04-06T05:18:04.666Z,505.00
2023-04-06T05:19:04.627Z,508.00
2023-04-06T05:20:04.620Z,509.00
2023-04-06T05:21:04.604Z,510.00
2023-04-06T05:22:04.615Z,510.00
2023-04-06T05:23:04.582Z,512.00
2023-04-06T05:24:04.580Z,513.00
2023-04-06T05:25:04.570Z,510.00
2023-04-06T05:26:04.593Z,513.00
2023-04-06T05:27:04.598Z,511.00
2023-04-06T05:28:04.580Z,511.00
2023-04-06T05:29:04.536Z,510.00
2023-04-06T05:30:04.559Z,509.00
2023-04-06T05:31:04.616Z,508.00
2023-04-06T05:32:04.532Z,509.00
2023-04-06T05:33:04.553Z,510.00
2023-04-06T05:34:04.515Z,510.00
2023-04-06T05:35:04.507Z,513.00
2023-04-06T05:36:04.582Z,512.00
2023-04-06T05:37:04.831Z,512.00
2023-04-06T05:38:04.610Z,509.00
2023-04-06T05:39:04.617Z,513.00
2023-04-06T05:40:04.683Z,510.00
2023-04-06T05:41:04.735Z,508.00
2023-04-06T05:42:04.779Z,509.00
2023-04-06T05:43:04.836Z,511.00
2023-04-06T05:44:04.891Z,510.00
2023-04-06T05:45:04.925Z,509.00
2023-04-06T05:46:12.032Z,512.00
2023-04-06T05:47:04.980Z,513.00
2023-04-06T05:48:04.978Z,513.00
2023-04-06T05:49:06.876Z,512.00
2023-04-06T05:50:05.007Z,513.00
2023-04-06T05:51:04.945Z,514.00
2023-04-06T05:52:04.950Z,514.00
2023-04-06T05:53:04.931Z,515.00
2023-04-06T05:54:04.904Z,514.00
2023-04-06T05:55:04.891Z,514.00
2023-04-06T05:56:04.930Z,509.00
2023-04-06T05:57:04.985Z,507.00
2023-04-06T05:58:05.049Z,508.00
2023-04-06T05:59:05.150Z,507.00
2023-04-06T06:00:05.158Z,512.00
2023-04-06T06:01:05.224Z,515.00
2023-04-06T06:02:05.345Z,515.00
2023-04-06T06:03:05.396Z,517.00
2023-04-06T06:04:05.346Z,534.00
2023-04-06T06:05:05.539Z,543.00
2023-04-06T06:06:05.865Z,546.00
2023-04-06T06:07:05.519Z,561.00
2023-04-06T06:08:05.544Z,575.00
2023-04-06T06:09:05.714Z,573.00
2023-04-06T06:10:05.650Z,573.00
2023-04-06T06:11:05.686Z,576.00
2023-04-06T06:12:05.753Z,575.00
2023-04-06T06:13:05.754Z,584.00
2023-04-06T06:14:05.819Z,590.00
2023-04-06T06:15:06.685Z,589.00
2023-04-06T06:16:05.833Z,606.00
2023-04-06T06:17:05.844Z,615.00
2023-04-06T06:18:05.885Z,616.00
2023-04-06T06:19:06.076Z,615.00
2023-04-06T06:20:05.995Z,618.00
2023-04-06T06:21:05.928Z,612.00
2023-04-06T06:22:05.938Z,609.00
2023-04-06T06:23:05.992Z,605.00
2023-04-06T06:24:06.009Z,601.00
2023-04-06T06:25:05.996Z,602.00
2023-04-06T06:26:06.036Z,600.00
2023-04-06T06:27:06.044Z,599.00
2023-04-06T06:28:06.061Z,596.00
2023-04-06T06:29:06.242Z,595.00
2023-04-06T06:30:06.106Z,602.00
2023-04-06T06:31:06.084Z,609.00
2023-04-06T06:32:06.158Z,616.00
2023-04-06T06:33:06.203Z,620.00
2023-04-06T06:34:06.183Z,624.00
2023-04-06T06:35:06.206Z,617.00
2023-04-06T06:36:06.216Z,622.00
2023-04-06T06:37:06.212Z,621.00
2023-04-06T06:38:06.263Z,628.00
2023-04-06T06:39:06.515Z,627.00
2023-04-06T06:40:06.328Z,632.00
2023-04-06T06:41:06.294Z,632.00
2023-04-06T06:42:06.368Z,634.00
2023-04-06T06:43:06.332Z,634.00
2023-04-06T06:44:06.621Z,628.00
2023-04-06T06:45:06.401Z,622.00
2023-04-06T06:46:06.494Z,625.00
2023-04-06T06:47:06.495Z,616.00
2023-04-06T06:48:06.615Z,611.00
2023-04-06T06:49:06.614Z,610.00
2023-04-06T06:50:06.654Z,608.00
2023-04-06T06:51:06.751Z,605.00
2023-04-06T06:52:06.773Z,607.00
2023-04-06T06:53:06.838Z,611.00
2023-04-06T06:54:07.311Z,612.00
2023-04-06T06:55:06.945Z,612.00
2023-04-06T06:56:06.979Z,611.00
2023-04-06T06:57:07.042Z,620.00
2023-04-06T06:58:07.091Z,624.00
2023-04-06T06:59:07.130Z,621.00
2023-04-06T07:00:07.236Z,627.00
2023-04-06T07:01:07.287Z,626.00
2023-04-06T07:02:07.310Z,628.00
2023-04-06T07:03:07.479Z,629.00
2023-04-06T07:04:07.773Z,627.00
2023-04-06T07:05:16.040Z,625.00
2023-04-06T07:06:08.518Z,625.00
2023-04-06T07:07:07.449Z,626.00
2023-04-06T07:08:07.421Z,625.00
2023-04-06T07:09:07.417Z,628.00
2023-04-06T07:10:07.422Z,620.00
2023-04-06T07:11:07.386Z,627.00
2023-04-06T07:12:07.380Z,620.00
2023-04-06T07:13:07.405Z,616.00
2023-04-06T07:14:07.742Z,621.00
2023-04-06T07:15:07.330Z,620.00
2023-04-06T07:16:07.396Z,616.00
2023-04-06T07:17:07.505Z,614.00
2023-04-06T07:18:07.530Z,615.00
2023-04-06T07:19:07.497Z,608.00
2023-04-06T07:20:07.538Z,614.00
2023-04-06T07:21:07.526Z,612.00
2023-04-06T07:22:07.594Z,608.00
2023-04-06T07:23:07.680Z,605.00
2023-04-06T07:24:08.019Z,606.00
2023-04-06T07:25:07.701Z,603.00
2023-04-06T07:26:07.744Z,600.00
2023-04-06T07:27:07.805Z,595.00
2023-04-06T07:28:07.847Z,591.00
2023-04-06T07:29:07.885Z,590.00
2023-04-06T07:30:07.866Z,598.00
2023-04-06T07:31:07.915Z,602.00
2023-04-06T07:32:08.030Z,592.00
2023-04-06T07:33:08.038Z,594.00
2023-04-06T07:34:08.182Z,596.00
2023-04-06T07:35:08.049Z,592.00
2023-04-06T07:36:08.098Z,589.00
2023-04-06T07:37:08.154Z,594.00
2023-04-06T07:38:08.152Z,596.00
2023-04-06T07:39:08.202Z,593.00
2023-04-06T07:40:08.209Z,590.00
2023-04-06T07:41:08.272Z,586.00
2023-04-06T07:42:08.273Z,587.00
2023-04-06T07:43:08.323Z,589.00
2023-04-06T07:44:09.405Z,586.00
2023-04-06T07:45:08.502Z,591.00
2023-04-06T07:46:08.458Z,596.00
2023-04-06T07:47:08.463Z,597.00
2023-04-06T07:48:08.570Z,593.00
2023-04-06T07:49:08.595Z,586.00
2023-04-06T07:50:08.666Z,595.00
2023-04-06T07:51:08.685Z,590.00
2023-04-06T07:52:08.710Z,596.00
2023-04-06T07:53:08.725Z,588.00
2023-04-06T07:54:08.993Z,596.00
2023-04-06T07:55:08.782Z,593.00
2023-04-06T07:56:08.822Z,596.00
2023-04-06T07:57:08.830Z,592.00
2023-04-06T07:58:08.808Z,594.00
2023-04-06T07:59:08.958Z,591.00
2023-04-06T08:00:08.882Z,593.00
2023-04-06T08:01:08.872Z,592.00
2023-04-06T08:02:08.992Z,596.00
2023-04-06T08:03:09.010Z,586.00
2023-04-06T08:04:09.295Z,592.00
2023-04-06T08:05:08.988Z,592.00
2023-04-06T08:06:08.969Z,593.00
2023-04-06T08:07:09.055Z,599.00
2023-04-06T08:08:09.107Z,592.00
2023-04-06T08:09:09.175Z,594.00
2023-04-06T08:10:09.204Z,590.00
2023-04-06T08:11:09.292Z,592.00
2023-04-06T08:12:09.338Z,590.00
2023-04-06T08:13:09.392Z,597.00
2023-04-06T08:14:09.599Z,594.00
2023-04-06T08:15:09.536Z,587.00
2023-04-06T08:16:09.581Z,590.00
2023-04-06T08:17:09.609Z,589.00
2023-04-06T08:18:09.639Z,591.00
2023-04-06T08:19:09.702Z,589.00
2023-04-06T08:20:09.756Z,597.00
2023-04-06T08:21:09.799Z,588.00
2023-04-06T08:22:09.848Z,590.00
2023-04-06T08:23:09.877Z,592.00
2023-04-06T08:24:10.166Z,593.00
2023-04-06T08:25:09.998Z,592.00
2023-04-06T08:26:10.038Z,600.00
2023-04-06T08:27:10.079Z,597.00
2023-04-06T08:28:10.130Z,595.00
2023-04-06T08:29:10.192Z,590.00
2023-04-06T08:30:10.234Z,591.00
2023-04-06T08:31:10.286Z,595.00
2023-04-06T08:32:10.353Z,598.00
2023-04-06T08:33:10.406Z,593.00
2023-04-06T08:34:12.385Z,594.00
2023-04-06T08:35:10.423Z,602.00
2023-04-06T08:36:10.394Z,601.00
2023-04-06T08:37:10.393Z,598.00
2023-04-06T08:38:10.347Z,596.00
2023-04-06T08:39:10.373Z,595.00
2023-04-06T08:40:10.377Z,592.00
2023-04-06T08:41:10.363Z,602.00
2023-04-06T08:42:10.350Z,595.00
2023-04-06T08:43:10.316Z,599.00
2023-04-06T08:44:10.461Z,597.00
2023-04-06T08:45:10.338Z,597.00
2023-04-06T08:46:10.373Z,594.00
2023-04-06T08:47:10.324Z,597.00
2023-04-06T08:48:10.290Z,599.00
2023-04-06T08:49:10.296Z,599.00
2023-04-06T08:50:10.265Z,600.00
2023-04-06T08:51:10.273Z,604.00
2023-04-06T08:52:10.310Z,599.00
2023-04-06T08:53:10.243Z,601.00
2023-04-06T08:54:10.353Z,596.00
2023-04-06T08:55:10.236Z,604.00
2023-04-06T08:56:10.253Z,596.00
2023-04-06T08:57:10.250Z,605.00
2023-04-06T08:58:10.293Z,602.00
2023-04-06T08:59:10.322Z,602.00
2023-04-06T09:00:10.237Z,598.00
2023-04-06T09:01:10.254Z,602.00
2023-04-06T09:02:10.245Z,598.00
2023-04-06T09:03:10.263Z,600.00
2023-04-06T09:04:10.393Z,595.00
2023-04-06T09:05:10.190Z,603.00
2023-04-06T09:06:10.219Z,604.00
2023-04-06T09:07:10.184Z,601.00
2023-04-06T09:08:10.191Z,603.00
2023-04-06T09:09:10.158Z,602.00
2023-04-06T09:10:10.153Z,597.00
2023-04-06T09:11:10.180Z,609.00
2023-04-06T09:12:10.148Z,604.00
2023-04-06T09:13:10.128Z,605.00
2023-04-06T09:14:10.327Z,601.00
2023-04-06T09:15:10.132Z,608.00
2023-04-06T09:16:10.163Z,603.00
2023-04-06T09:17:10.102Z,605.00
2023-04-06T09:18:10.114Z,606.00
2023-04-06T09:19:10.134Z,602.00
2023-04-06T09:20:10.103Z,606.00
2023-04-06T09:21:10.070Z,604.00
2023-04-06T09:22:10.078Z,604.00
2023-04-06T09:23:10.092Z,602.00
2023-04-06T09:24:10.314Z,610.00
2023-04-06T09:25:10.081Z,609.00
2023-04-06T09:26:10.075Z,600.00
2023-04-06T09:27:10.079Z,607.00
2023-04-06T09:28:10.063Z,597.00
2023-04-06T09:29:10.077Z,603.00
2023-04-06T09:30:10.048Z,604.00
2023-04-06T09:31:10.146Z,610.00
2023-04-06T09:32:10.014Z,602.00
2023-04-06T09:33:10.030Z,608.00
2023-04-06T09:34:10.306Z,608.00
2023-04-06T09:35:10.046Z,612.00
2023-04-06T09:36:10.086Z,607.00
2023-04-06T09:37:10.133Z,608.00
2023-04-06T09:38:10.085Z,603.00
2023-04-06T09:39:10.149Z,604.00
2023-04-06T09:40:10.134Z,605.00
2023-04-06T09:41:10.222Z,610.00
2023-04-06T09:42:10.262Z,609.00
2023-04-06T09:43:10.332Z,618.00
2023-04-06T09:44:10.561Z,606.00
2023-04-06T09:45:10.465Z,609.00
2023-04-06T09:46:10.488Z,610.00
2023-04-06T09:47:10.521Z,609.00
2023-04-06T09:48:10.540Z,614.00
2023-04-06T09:49:10.647Z,612.00
2023-04-06T09:50:10.586Z,612.00
2023-04-06T09:51:10.593Z,607.00
2023-04-06T09:52:10.616Z,613.00
2023-04-06T09:53:10.621Z,607.00
2023-04-06T09:54:10.678Z,613.00
2023-04-06T09:55:10.667Z,609.00
2023-04-06T09:56:10.657Z,608.00
2023-04-06T09:57:13.268Z,613.00
2023-04-06T09:58:10.679Z,613.00
2023-04-06T09:59:10.888Z,613.00
2023-04-06T10:00:10.737Z,614.00
2023-04-06T10:01:10.749Z,614.00
2023-04-06T10:02:10.646Z,618.00
2023-04-06T10:03:10.689Z,615.00
2023-04-06T10:04:11.024Z,617.00
2023-04-06T10:05:10.619Z,616.00
2023-04-06T10:06:10.636Z,623.00
2023-04-06T10:07:10.589Z,611.00
2023-04-06T10:08:10.602Z,616.00
2023-04-06T10:09:10.608Z,614.00
2023-04-06T10:10:10.567Z,620.00
2023-04-06T10:11:10.556Z,610.00
2023-04-06T10:12:10.563Z,620.00
2023-04-06T10:13:10.561Z,625.00
2023-04-06T10:14:10.651Z,617.00
2023-04-06T10:15:10.541Z,617.00
2023-04-06T10:16:10.570Z,619.00
2023-04-06T10:17:10.563Z,615.00
2023-04-06T10:18:10.559Z,619.00
2023-04-06T10:19:10.524Z,622.00
2023-04-06T10:20:10.511Z,613.00
2023-04-06T10:21:10.481Z,619.00
2023-04-06T10:22:10.491Z,613.00
2023-04-06T10:23:10.506Z,616.00
2023-04-06T10:24:10.594Z,618.00
2023-04-06T10:25:10.458Z,621.00
2023-04-06T10:26:10.474Z,616.00
2023-04-06T10:27:10.452Z,617.00
2023-04-06T10:28:10.521Z,619.00
2023-04-06T10:29:10.509Z,622.00
2023-04-06T10:30:10.515Z,615.00
2023-04-06T10:31:10.523Z,616.00
2023-04-06T10:32:10.620Z,611.00
2023-04-06T10:33:10.617Z,611.00
2023-04-06T10:34:10.855Z,612.00
2023-04-06T10:35:10.629Z,614.00
2023-04-06T10:36:10.726Z,618.00
2023-04-06T10:37:10.665Z,626.00
2023-04-06T10:38:10.687Z,616.00
2023-04-06T10:39:10.722Z,616.00
2023-04-06T10:40:10.762Z,616.00
2023-04-06T10:41:10.836Z,616.00
2023-04-06T10:42:10.890Z,612.00
2023-04-06T10:43:11.016Z,614.00
2023-04-06T10:44:10.992Z,620.00
2023-04-06T10:45:11.069Z,619.00
2023-04-06T10:46:11.391Z,614.00
2023-04-06T10:47:11.178Z,613.00
2023-04-06T10:48:11.230Z,615.00
2023-04-06T10:49:11.299Z,620.00
2023-04-06T10:50:11.385Z,615.00
2023-04-06T10:51:11.409Z,613.00
2023-04-06T10:52:11.496Z,613.00
2023-04-06T10:53:11.532Z,612.00
2023-04-06T10:54:11.618Z,615.00
2023-04-06T10:55:11.701Z,612.00
2023-04-06T10:56:11.756Z,617.00
2023-04-06T10:57:11.825Z,613.00
2023-04-06T10:58:11.870Z,612.00
2023-04-06T10:59:11.971Z,616.00
2023-04-06T11:00:12.759Z,611.00
2023-04-06T11:01:12.065Z,615.00
2023-04-06T11:02:12.089Z,611.00
2023-04-06T11:03:12.182Z,612.00
2023-04-06T11:04:12.247Z,611.00
2023-04-06T11:05:12.271Z,610.00
2023-04-06T11:06:12.339Z,614.00
2023-04-06T11:07:12.385Z,612.00
2023-04-06T11:08:12.405Z,610.00
2023-04-06T11:09:12.563Z,608.00
2023-04-06T11:10:19.373Z,611.00
2023-04-06T11:11:13.525Z,611.00
2023-04-06T11:12:12.557Z,611.00
2023-04-06T11:13:12.593Z,612.00
2023-04-06T11:14:12.492Z,615.00
2023-04-06T11:15:12.545Z,615.00
2023-04-06T11:16:12.499Z,617.00
2023-04-06T11:17:12.518Z,615.00
2023-04-06T11:18:12.623Z,609.00
2023-04-06T11:19:12.482Z,606.00
2023-04-06T11:20:12.549Z,608.00
2023-04-06T11:21:12.656Z,611.00
2023-04-06T11:22:12.737Z,612.00
2023-04-06T11:23:12.701Z,615.00
2023-04-06T11:24:12.777Z,607.00
2023-04-06T11:25:12.898Z,608.00
2023-04-06T11:26:12.781Z,605.00
2023-04-06T11:27:12.724Z,611.00
2023-04-06T11:28:12.828Z,606.00
2023-04-06T11:29:12.779Z,604.00
2023-04-06T11:30:12.796Z,603.00
2023-04-06T11:31:12.847Z,608.00
2023-04-06T11:32:12.832Z,608.00
2023-04-06T11:33:12.866Z,609.00
2023-04-06T11:34:12.938Z,614.00
2023-04-06T11:35:12.963Z,613.00
2023-04-06T11:36:14.369Z,612.00
2023-04-06T11:37:13.838Z,608.00
2023-04-06T11:38:13.081Z,617.00
2023-04-06T11:39:13.031Z,608.00
2023-04-06T11:40:13.019Z,614.00
2023-04-06T11:41:13.034Z,610.00
2023-04-06T11:42:12.999Z,613.00
2023-04-06T11:43:13.004Z,613.00
2023-04-06T11:44:13.038Z,611.00
2023-04-06T11:45:12.995Z,604.00
2023-04-06T11:46:13.010Z,607.00
2023-04-06T11:47:12.974Z,606.00
2023-04-06T11:49:13.084Z,611.00
2023-04-06T11:50:13.049Z,612.00
2023-04-06T11:51:13.005Z,610.00
2023-04-06T11:52:13.000Z,606.00
2023-04-06T11:53:12.994Z,612.00
2023-04-06T11:54:12.921Z,615.00
2023-04-06T11:55:12.907Z,606.00
2023-04-06T11:56:12.898Z,615.00
2023-04-06T11:57:12.894Z,609.00
2023-04-06T11:58:12.867Z,613.00
2023-04-06T11:59:12.909Z,610.00
2023-04-06T12:00:12.899Z,606.00
2023-04-06T12:01:12.878Z,606.00
2023-04-06T12:02:12.888Z,608.00
2023-04-06T12:03:12.936Z,607.00
2023-04-06T12:04:12.882Z,612.00
2023-04-06T12:05:12.838Z,600.00
2023-04-06T12:06:12.850Z,608.00
2023-04-06T12:07:12.821Z,613.00
2023-04-06T12:08:12.801Z,605.00
2023-04-06T12:09:12.818Z,610.00
2023-04-06T12:10:12.888Z,606.00
2023-04-06T12:11:12.792Z,599.00
2023-04-06T12:12:12.826Z,604.00
2023-04-06T12:13:12.794Z,606.00
2023-04-06T12:14:12.802Z,599.00
2023-04-06T12:15:12.815Z,603.00
2023-04-06T12:16:12.769Z,604.00
2023-04-06T12:17:12.844Z,608.00
2023-04-06T12:18:12.874Z,605.00
2023-04-06T12:19:13.004Z,605.00
2023-04-06T12:20:22.526Z,606.00
2023-04-06T12:21:14.012Z,607.00
2023-04-06T12:22:12.990Z,607.00
2023-04-06T12:23:12.972Z,609.00
2023-04-06T12:24:13.005Z,606.00
2023-04-06T12:25:12.972Z,615.00
2023-04-06T12:26:13.511Z,609.00
2023-04-06T12:27:12.968Z,607.00
2023-04-06T12:28:12.974Z,607.00
2023-04-06T12:29:13.028Z,608.00
2023-04-06T12:30:13.088Z,612.00